sensor_id;sensor_type;location;lat;lon;timestamp;pressure;altitude;pressure_sealevel;temperature;humidity
70343;BME280;57767;42.068;24.752;2023-11-19T00:00:26;98583.72;;;6.46;53.33
70343;BME280;57767;42.068;24.752;2023-11-19T00:01:28;98568.13;;;6.38;53.81
70343;BME280;57767;42.068;24.752;2023-11-19T00:02:30;98576.34;;;6.35;53.20
70343;BME280;57767;42.068;24.752;2023-11-19T00:03:31;98578.25;;;6.41;53.31
70343;BME280;57767;42.068;24.752;2023-11-19T00:04:38;98600.91;;;6.48;53.22
70343;BME280;57767;42.068;24.752;2023-11-19T00:05:43;98588.97;;;6.46;53.34
70343;BME280;57767;42.068;24.752;2023-11-19T00:06:46;98604.50;;;6.47;53.55
70343;BME280;57767;42.068;24.752;2023-11-19T00:07:47;98600.91;;;6.48;53.83
70343;BME280;57767;42.068;24.752;2023-11-19T00:08:52;98599.41;;;6.39;53.09
70343;BME280;57767;42.068;24.752;2023-11-19T00:09:53;98593.44;;;6.45;53.56
70343;BME280;57767;42.068;24.752;2023-11-19T00:10:56;98606.31;;;6.47;53.55
70343;BME280;57767;42.068;24.752;2023-11-19T00:11:58;98617.44;;;6.49;53.32
70343;BME280;57767;42.068;24.752;2023-11-19T00:13:01;98597.66;;;6.46;53.44
70343;BME280;57767;42.068;24.752;2023-11-19T00:14:04;98608.34;;;6.45;53.65
70343;BME280;57767;42.068;24.752;2023-11-19T00:15:10;98603.69;;;6.47;53.23
70343;BME280;57767;42.068;24.752;2023-11-19T00:16:15;98592.84;;;6.50;53.66
70343;BME280;57767;42.068;24.752;2023-11-19T00:17:18;98603.34;;;6.50;53.02
70343;BME280;57767;42.068;24.752;2023-11-19T00:18:20;98608.22;;;6.53;53.76
70343;BME280;57767;42.068;24.752;2023-11-19T00:19:22;98612.47;;;6.54;53.10
70343;BME280;57767;42.068;24.752;2023-11-19T00:20:24;98615.44;;;6.51;53.24
70343;BME280;57767;42.068;24.752;2023-11-19T00:21:25;98599.72;;;6.51;53.47
70343;BME280;57767;42.068;24.752;2023-11-19T00:22:30;98625.94;;;6.51;53.48
70343;BME280;57767;42.068;24.752;2023-11-19T00:23:31;98593.59;;;6.44;53.42
70343;BME280;57767;42.068;24.752;2023-11-19T00:24:33;98610.22;;;6.51;53.65
70343;BME280;57767;42.068;24.752;2023-11-19T00:25:35;98604.16;;;6.51;53.57
70343;BME280;57767;42.068;24.752;2023-11-19T00:26:40;98598.91;;;6.51;53.31
70343;BME280;57767;42.068;24.752;2023-11-19T00:27:41;98597.22;;;6.43;53.62
70343;BME280;57767;42.068;24.752;2023-11-19T00:28:46;98589.59;;;6.48;54.03
70343;BME280;57767;42.068;24.752;2023-11-19T00:29:49;98612.81;;;6.51;54.03
70343;BME280;57767;42.068;24.752;2023-11-19T00:30:50;98605.78;;;6.52;53.69
70343;BME280;57767;42.068;24.752;2023-11-19T00:31:52;98595.47;;;6.50;53.42
70343;BME280;57767;42.068;24.752;2023-11-19T00:32:54;98619.06;;;6.50;53.50
70343;BME280;57767;42.068;24.752;2023-11-19T00:33:56;98615.00;;;6.47;54.09
70343;BME280;57767;42.068;24.752;2023-11-19T00:34:58;98614.63;;;6.51;53.70
70343;BME280;57767;42.068;24.752;2023-11-19T00:35:59;98606.47;;;6.39;54.13
70343;BME280;57767;42.068;24.752;2023-11-19T00:37:01;98610.97;;;6.45;53.96
70343;BME280;57767;42.068;24.752;2023-11-19T00:38:02;98620.66;;;6.44;54.50
70343;BME280;57767;42.068;24.752;2023-11-19T00:39:05;98633.63;;;6.53;54.41
70343;BME280;57767;42.068;24.752;2023-11-19T00:40:08;98615.41;;;6.44;54.26
70343;BME280;57767;42.068;24.752;2023-11-19T00:41:12;98629.56;;;6.50;54.02
70343;BME280;57767;42.068;24.752;2023-11-19T00:42:13;98617.03;;;6.45;54.74
70343;BME280;57767;42.068;24.752;2023-11-19T00:43:15;98605.69;;;6.24;54.56
70343;BME280;57767;42.068;24.752;2023-11-19T00:44:17;98627.88;;;6.42;54.54
70343;BME280;57767;42.068;24.752;2023-11-19T00:45:19;98628.31;;;6.46;54.75
70343;BME280;57767;42.068;24.752;2023-11-19T00:46:21;98619.84;;;6.44;55.12
70343;BME280;57767;42.068;24.752;2023-11-19T00:47:22;98617.44;;;6.49;55.17
70343;BME280;57767;42.068;24.752;2023-11-19T00:48:24;98640.88;;;6.51;55.05
70343;BME280;57767;42.068;24.752;2023-11-19T00:49:26;98636.81;;;6.48;55.19
70343;BME280;57767;42.068;24.752;2023-11-19T00:50:28;98627.53;;;6.45;54.65
70343;BME280;57767;42.068;24.752;2023-11-19T00:51:31;98632.38;;;6.48;54.88
70343;BME280;57767;42.068;24.752;2023-11-19T00:52:32;98630.75;;;6.47;54.87
70343;BME280;57767;42.068;24.752;2023-11-19T00:53:34;98636.16;;;6.46;54.78
70343;BME280;57767;42.068;24.752;2023-11-19T00:54:36;98627.88;;;6.42;55.13
70343;BME280;57767;42.068;24.752;2023-11-19T00:55:37;98623.19;;;6.38;55.33
70343;BME280;57767;42.068;24.752;2023-11-19T00:56:47;98627.69;;;6.44;55.07
70343;BME280;57767;42.068;24.752;2023-11-19T00:57:49;98646.06;;;6.44;54.85
70343;BME280;57767;42.068;24.752;2023-11-19T00:58:51;98633.53;;;6.46;55.06
70343;BME280;57767;42.068;24.752;2023-11-19T00:59:53;98636.81;;;6.48;55.16
70343;BME280;57767;42.068;24.752;2023-11-19T01:00:54;98642.03;;;6.48;55.32
70343;BME280;57767;42.068;24.752;2023-11-19T01:01:59;98636.81;;;6.48;54.89
70343;BME280;57767;42.068;24.752;2023-11-19T01:03:06;98638.44;;;6.49;54.87
70343;BME280;57767;42.068;24.752;2023-11-19T01:04:09;98644.03;;;6.46;55.38
70343;BME280;57767;42.068;24.752;2023-11-19T01:05:11;98636.56;;;6.43;55.11
70343;BME280;57767;42.068;24.752;2023-11-19T01:06:26;98632.94;;;6.44;55.12
70343;BME280;57767;42.068;24.752;2023-11-19T01:07:28;98639.19;;;6.43;55.06
70343;BME280;57767;42.068;24.752;2023-11-19T01:08:29;98641.19;;;6.41;55.17
70343;BME280;57767;42.068;24.752;2023-11-19T01:09:32;98651.31;;;6.44;55.48
70343;BME280;57767;42.068;24.752;2023-11-19T01:10:39;98642.00;;;6.41;55.20
70343;BME280;57767;42.068;24.752;2023-11-19T01:11:41;98641.00;;;6.42;55.57
70343;BME280;57767;42.068;24.752;2023-11-19T01:12:42;98641.81;;;6.43;54.99
70343;BME280;57767;42.068;24.752;2023-11-19T01:13:44;98641.00;;;6.42;55.01
70343;BME280;57767;42.068;24.752;2023-11-19T01:14:46;98633.94;;;6.43;54.95
70343;BME280;57767;42.068;24.752;2023-11-19T01:15:47;98640.81;;;6.44;54.79
70343;BME280;57767;42.068;24.752;2023-11-19T01:16:49;98635.13;;;6.40;54.98
70343;BME280;57767;42.068;24.752;2023-11-19T01:17:52;98639.56;;;6.40;54.87
70343;BME280;57767;42.068;24.752;2023-11-19T01:18:54;98644.03;;;6.46;54.89
70343;BME280;57767;42.068;24.752;2023-11-19T01:20:15;98651.31;;;6.44;54.47
70343;BME280;57767;42.068;24.752;2023-11-19T01:21:17;98632.94;;;6.44;55.08
70343;BME280;57767;42.068;24.752;2023-11-19T01:22:19;98634.50;;;6.38;54.99
70343;BME280;57767;42.068;24.752;2023-11-19T01:23:21;98644.44;;;6.43;55.00
70343;BME280;57767;42.068;24.752;2023-11-19T01:24:22;98625.19;;;6.36;54.58
70343;BME280;57767;42.068;24.752;2023-11-19T01:25:24;98624.81;;;6.39;55.07
70343;BME280;57767;42.068;24.752;2023-11-19T01:26:26;98643.81;;;6.41;55.26
70343;BME280;57767;42.068;24.752;2023-11-19T01:27:28;98643.16;;;6.39;55.10
70343;BME280;57767;42.068;24.752;2023-11-19T01:28:29;98644.63;;;6.41;54.76
70343;BME280;57767;42.068;24.752;2023-11-19T01:29:32;98639.91;;;6.37;55.11
70343;BME280;57767;42.068;24.752;2023-11-19T01:30:37;98633.13;;;6.42;55.24
70343;BME280;57767;42.068;24.752;2023-11-19T01:31:43;98631.31;;;6.43;54.91
70343;BME280;57767;42.068;24.752;2023-11-19T01:32:45;98644.44;;;6.43;55.15
70343;BME280;57767;42.068;24.752;2023-11-19T01:33:46;98642.81;;;6.42;54.61
70343;BME280;57767;42.068;24.752;2023-11-19T01:34:48;98644.44;;;6.43;55.05
70343;BME280;57767;42.068;24.752;2023-11-19T01:35:50;98616.91;;;6.32;55.00
70343;BME280;57767;42.068;24.752;2023-11-19T01:36:52;98643.16;;;6.39;55.17
70343;BME280;57767;42.068;24.752;2023-11-19T01:37:53;98628.97;;;6.33;55.14
70343;BME280;57767;42.068;24.752;2023-11-19T01:38:55;98629.06;;;6.40;55.06
70343;BME280;57767;42.068;24.752;2023-11-19T01:39:56;98623.75;;;6.33;55.68
70343;BME280;57767;42.068;24.752;2023-11-19T01:41:00;98635.13;;;6.40;54.96
70343;BME280;57767;42.068;24.752;2023-11-19T01:42:04;98629.06;;;6.40;54.93
70343;BME280;57767;42.068;24.752;2023-11-19T01:43:06;98632.69;;;6.39;54.81
70343;BME280;57767;42.068;24.752;2023-11-19T01:44:08;98635.31;;;6.39;54.88
70343;BME280;57767;42.068;24.752;2023-11-19T01:45:21;98630.69;;;6.41;55.05
70343;BME280;57767;42.068;24.752;2023-11-19T01:46:23;98622.56;;;6.36;55.11
70343;BME280;57767;42.068;24.752;2023-11-19T01:47:25;98622.31;;;6.31;55.31
70343;BME280;57767;42.068;24.752;2023-11-19T01:48:28;98606.78;;;6.29;55.04
70343;BME280;57767;42.068;24.752;2023-11-19T01:49:31;98635.44;;;6.31;55.28
70343;BME280;57767;42.068;24.752;2023-11-19T01:50:33;98624.94;;;6.31;55.08
70343;BME280;57767;42.068;24.752;2023-11-19T01:51:35;98634.81;;;6.29;55.25
70343;BME280;57767;42.068;24.752;2023-11-19T01:52:37;98633.44;;;6.33;55.26
70343;BME280;57767;42.068;24.752;2023-11-19T01:53:40;98630.19;;;6.31;55.06
70343;BME280;57767;42.068;24.752;2023-11-19T01:54:42;98631.00;;;6.31;55.56
70343;BME280;57767;42.068;24.752;2023-11-19T01:55:44;98638.47;;;6.34;55.52
70343;BME280;57767;42.068;24.752;2023-11-19T01:56:47;98621.69;;;6.29;55.72
70343;BME280;57767;42.068;24.752;2023-11-19T01:57:49;98636.25;;;6.31;55.45
70343;BME280;57767;42.068;24.752;2023-11-19T01:58:54;98623.69;;;6.27;55.14
70343;BME280;57767;42.068;24.752;2023-11-19T01:59:56;98631.81;;;6.32;55.00
70343;BME280;57767;42.068;24.752;2023-11-19T02:00:57;98629.19;;;6.32;55.08
70343;BME280;57767;42.068;24.752;2023-11-19T02:01:59;98637.44;;;6.29;55.48
70343;BME280;57767;42.068;24.752;2023-11-19T02:03:02;98633.34;;;6.26;55.03
70343;BME280;57767;42.068;24.752;2023-11-19T02:04:08;98639.06;;;6.30;55.28
70343;BME280;57767;42.068;24.752;2023-11-19T02:05:11;98639.88;;;6.30;55.05
70343;BME280;57767;42.068;24.752;2023-11-19T02:06:14;98635.63;;;6.29;55.50
70343;BME280;57767;42.068;24.752;2023-11-19T02:07:16;98622.41;;;6.23;55.37
70343;BME280;57767;42.068;24.752;2023-11-19T02:08:22;98636.59;;;6.28;55.44
70343;BME280;57767;42.068;24.752;2023-11-19T02:09:24;98626.94;;;6.29;55.84
70343;BME280;57767;42.068;24.752;2023-11-19T02:10:25;98631.41;;;6.35;55.42
70343;BME280;57767;42.068;24.752;2023-11-19T02:11:27;98625.31;;;6.28;55.56
70343;BME280;57767;42.068;24.752;2023-11-19T02:12:34;98622.88;;;6.26;55.37
70343;BME280;57767;42.068;24.752;2023-11-19T02:13:37;98636.84;;;6.33;55.43
70343;BME280;57767;42.068;24.752;2023-11-19T02:14:39;98627.31;;;6.26;55.62
70343;BME280;57767;42.068;24.752;2023-11-19T02:15:41;98624.69;;;6.26;55.51
70343;BME280;57767;42.068;24.752;2023-11-19T02:16:44;98631.00;;;6.31;55.81
70343;BME280;57767;42.068;24.752;2023-11-19T02:17:46;98638.25;;;6.29;55.83
70343;BME280;57767;42.068;24.752;2023-11-19T02:18:47;98641.03;;;6.28;56.20
70343;BME280;57767;42.068;24.752;2023-11-19T02:19:50;98647.09;;;6.28;56.45
70343;BME280;57767;42.068;24.752;2023-11-19T02:20:51;98649.91;;;6.27;55.99
70343;BME280;57767;42.068;24.752;2023-11-19T02:21:53;98626.03;;;6.22;56.29
70343;BME280;57767;42.068;24.752;2023-11-19T02:22:55;98641.97;;;6.20;56.55
70343;BME280;57767;42.068;24.752;2023-11-19T02:23:57;98623.34;;;6.15;56.21
70343;BME280;57767;42.068;24.752;2023-11-19T02:25:17;98654.28;;;6.20;56.63
70343;BME280;57767;42.068;24.752;2023-11-19T02:26:52;98636.09;;;6.18;56.49
70343;BME280;57767;42.068;24.752;2023-11-19T02:27:59;98638.09;;;6.16;56.67
70343;BME280;57767;42.068;24.752;2023-11-19T02:29:02;98646.13;;;6.15;56.47
70343;BME280;57767;42.068;24.752;2023-11-19T02:30:08;98649.41;;;6.17;56.80
70343;BME280;57767;42.068;24.752;2023-11-19T02:31:10;98651.56;;;6.13;56.84
70343;BME280;57767;42.068;24.752;2023-11-19T02:32:15;98636.75;;;6.05;56.44
70343;BME280;57767;42.068;24.752;2023-11-19T02:33:17;98646.50;;;6.11;56.41
70343;BME280;57767;42.068;24.752;2023-11-19T02:34:18;98639.22;;;6.07;56.65
70343;BME280;57767;42.068;24.752;2023-11-19T02:35:20;98637.41;;;6.07;56.86
70343;BME280;57767;42.068;24.752;2023-11-19T02:36:22;98638.00;;;6.09;56.57
70343;BME280;57767;42.068;24.752;2023-11-19T02:37:24;98639.22;;;6.07;56.97
70343;BME280;57767;42.068;24.752;2023-11-19T02:38:26;98649.25;;;6.03;57.19
70343;BME280;57767;42.068;24.752;2023-11-19T02:39:27;98654.72;;;6.08;56.89
70343;BME280;57767;42.068;24.752;2023-11-19T02:40:29;98653.13;;;6.07;57.32
70343;BME280;57767;42.068;24.752;2023-11-19T02:41:31;98655.28;;;6.04;57.17
70343;BME280;57767;42.068;24.752;2023-11-19T02:42:33;98672.66;;;6.05;57.01
70343;BME280;57767;42.068;24.752;2023-11-19T02:43:36;98649.59;;;6.00;56.83
70343;BME280;57767;42.068;24.752;2023-11-19T02:44:39;98653.56;;;5.96;57.39
70343;BME280;57767;42.068;24.752;2023-11-19T02:45:40;98661.72;;;6.01;57.30
70343;BME280;57767;42.068;24.752;2023-11-19T02:46:43;98661.06;;;5.99;57.57
70343;BME280;57767;42.068;24.752;2023-11-19T02:47:45;98658.63;;;5.98;56.92
70343;BME280;57767;42.068;24.752;2023-11-19T02:48:47;98647.34;;;5.97;57.15
70343;BME280;57767;42.068;24.752;2023-11-19T02:49:48;98646.97;;;6.00;57.45
70343;BME280;57767;42.068;24.752;2023-11-19T02:50:50;98647.09;;;5.92;57.01
70343;BME280;57767;42.068;24.752;2023-11-19T02:51:54;98656.81;;;5.98;56.91
70343;BME280;57767;42.068;24.752;2023-11-19T02:52:56;98652.84;;;6.02;57.15
70343;BME280;57767;42.068;24.752;2023-11-19T02:53:58;98650.41;;;6.01;57.41
70343;BME280;57767;42.068;24.752;2023-11-19T02:55:00;98641.84;;;5.92;57.21
70343;BME280;57767;42.068;24.752;2023-11-19T02:56:01;98655.66;;;6.01;57.28
70343;BME280;57767;42.068;24.752;2023-11-19T02:57:10;98654.19;;;5.98;57.47
70343;BME280;57767;42.068;24.752;2023-11-19T02:58:23;98639.88;;;5.94;57.83
70343;BME280;57767;42.068;24.752;2023-11-19T02:59:29;98605.69;;;5.73;57.09
70343;BME280;57767;42.068;24.752;2023-11-19T03:00:40;98649.59;;;6.00;57.43
70343;BME280;57767;42.068;24.752;2023-11-19T03:01:50;98654.56;;;5.95;57.22
70343;BME280;57767;42.068;24.752;2023-11-19T03:02:53;98647.09;;;5.92;57.46
70343;BME280;57767;42.068;24.752;2023-11-19T03:04:01;98647.09;;;5.92;57.57
70343;BME280;57767;42.068;24.752;2023-11-19T03:05:05;98655.84;;;5.99;57.31
70343;BME280;57767;42.068;24.752;2023-11-19T03:06:07;98667.94;;;6.00;57.24
70343;BME280;57767;42.068;24.752;2023-11-19T03:07:10;98642.91;;;5.98;57.25
70343;BME280;57767;42.068;24.752;2023-11-19T03:08:12;98645.16;;;6.01;57.92
70343;BME280;57767;42.068;24.752;2023-11-19T03:09:23;98648.09;;;5.91;56.98
70343;BME280;57767;42.068;24.752;2023-11-19T03:10:26;98634.63;;;5.94;57.44
70343;BME280;57767;42.068;24.752;2023-11-19T03:11:27;98630.63;;;5.98;56.88
70343;BME280;57767;42.068;24.752;2023-11-19T03:12:29;98635.84;;;5.98;56.47
70343;BME280;57767;42.068;24.752;2023-11-19T03:13:31;98646.34;;;5.98;56.72
70343;BME280;57767;42.068;24.752;2023-11-19T03:14:33;98642.09;;;5.97;57.09
70343;BME280;57767;42.068;24.752;2023-11-19T03:15:38;98625.75;;;5.95;56.50
70343;BME280;57767;42.068;24.752;2023-11-19T03:16:39;98643.91;;;5.97;57.49
70343;BME280;57767;42.068;24.752;2023-11-19T03:17:42;98649.78;;;5.99;57.19
70343;BME280;57767;42.068;24.752;2023-11-19T03:18:46;98640.22;;;5.91;57.23
70343;BME280;57767;42.068;24.752;2023-11-19T03:19:48;98649.97;;;5.97;57.03
70343;BME280;57767;42.068;24.752;2023-11-19T03:20:50;98662.69;;;6.00;57.15
70343;BME280;57767;42.068;24.752;2023-11-19T03:21:51;98644.34;;;6.00;57.33
70343;BME280;57767;42.068;24.752;2023-11-19T03:22:53;98646.34;;;5.98;56.86
70343;BME280;57767;42.068;24.752;2023-11-19T03:23:54;98656.81;;;5.98;57.22
70343;BME280;57767;42.068;24.752;2023-11-19T03:24:56;98653.78;;;5.95;57.27
70343;BME280;57767;42.068;24.752;2023-11-19T03:25:58;98645.81;;;5.88;57.02
70343;BME280;57767;42.068;24.752;2023-11-19T03:27:00;98649.06;;;5.90;56.85
70343;BME280;57767;42.068;24.752;2023-11-19T03:28:03;98659.19;;;5.93;57.31
70343;BME280;57767;42.068;24.752;2023-11-19T03:29:05;98634.84;;;5.85;56.91
70343;BME280;57767;42.068;24.752;2023-11-19T03:30:10;98647.28;;;5.91;56.79
70343;BME280;57767;42.068;24.752;2023-11-19T03:31:12;98629.09;;;5.89;57.32
70343;BME280;57767;42.068;24.752;2023-11-19T03:32:14;98618.44;;;5.76;56.87
70343;BME280;57767;42.068;24.752;2023-11-19T03:33:16;98644.16;;;5.87;57.20
70343;BME280;57767;42.068;24.752;2023-11-19T03:34:18;98619.53;;;5.82;57.35
70343;BME280;57767;42.068;24.752;2023-11-19T03:35:20;98631.59;;;5.83;56.80
70343;BME280;57767;42.068;24.752;2023-11-19T03:36:22;98630.00;;;5.82;57.19
70343;BME280;57767;42.068;24.752;2023-11-19T03:37:24;98620.13;;;5.84;57.11
70343;BME280;57767;42.068;24.752;2023-11-19T03:38:25;98622.31;;;5.80;56.52
70343;BME280;57767;42.068;24.752;2023-11-19T03:39:28;98628.56;;;5.79;56.60
70343;BME280;57767;42.068;24.752;2023-11-19T03:40:30;98625.94;;;5.79;56.63
70343;BME280;57767;42.068;24.752;2023-11-19T03:41:32;98620.78;;;5.71;56.97
70343;BME280;57767;42.068;24.752;2023-11-19T03:42:37;98626.28;;;5.76;57.12
70343;BME280;57767;42.068;24.752;2023-11-19T03:43:39;98635.78;;;5.77;57.01
70343;BME280;57767;42.068;24.752;2023-11-19T03:44:41;98614.47;;;5.80;56.54
70343;BME280;57767;42.068;24.752;2023-11-19T03:45:42;98634.44;;;5.81;57.01
70343;BME280;57767;42.068;24.752;2023-11-19T03:46:44;98638.22;;;5.79;56.47
70343;BME280;57767;42.068;24.752;2023-11-19T03:47:46;98667.09;;;5.85;56.92
70343;BME280;57767;42.068;24.752;2023-11-19T03:48:49;98626.81;;;5.71;56.64
70343;BME280;57767;42.068;24.752;2023-11-19T03:49:51;98659.06;;;5.87;56.80
70343;BME280;57767;42.068;24.752;2023-11-19T03:50:53;98641.72;;;5.86;56.43
70343;BME280;57767;42.068;24.752;2023-11-19T03:51:54;98636.47;;;5.86;56.46
70343;BME280;57767;42.068;24.752;2023-11-19T03:52:56;98644.16;;;5.87;56.73
70343;BME280;57767;42.068;24.752;2023-11-19T03:53:58;98629.53;;;5.78;56.62
70343;BME280;57767;42.068;24.752;2023-11-19T03:55:00;98644.16;;;5.87;56.23
70343;BME280;57767;42.068;24.752;2023-11-19T03:56:02;98619.94;;;5.85;56.03
70343;BME280;57767;42.068;24.752;2023-11-19T03:57:05;98649.59;;;5.86;56.21
70343;BME280;57767;42.068;24.752;2023-11-19T03:58:06;98640.59;;;5.88;56.22
70343;BME280;57767;42.068;24.752;2023-11-19T03:59:08;98631.59;;;5.83;56.37
70343;BME280;57767;42.068;24.752;2023-11-19T04:00:11;98630.25;;;5.87;56.32
70343;BME280;57767;42.068;24.752;2023-11-19T04:01:15;98631.72;;;5.89;56.86
70343;BME280;57767;42.068;24.752;2023-11-19T04:02:17;98630.72;;;5.90;56.69
70343;BME280;57767;42.068;24.752;2023-11-19T04:03:19;98628.94;;;5.91;56.04
70343;BME280;57767;42.068;24.752;2023-11-19T04:04:21;98637.66;;;5.83;56.61
70343;BME280;57767;42.068;24.752;2023-11-19T04:05:22;98650.06;;;5.89;56.09
70343;BME280;57767;42.068;24.752;2023-11-19T04:06:24;98647.44;;;5.89;55.98
70343;BME280;57767;42.068;24.752;2023-11-19T04:07:26;98646.53;;;5.82;55.99
70343;BME280;57767;42.068;24.752;2023-11-19T04:08:27;98658.25;;;5.86;56.65
70343;BME280;57767;42.068;24.752;2023-11-19T04:09:29;98644.63;;;5.76;56.76
70343;BME280;57767;42.068;24.752;2023-11-19T04:10:31;98650.16;;;5.81;56.31
70343;BME280;57767;42.068;24.752;2023-11-19T04:11:33;98636.31;;;5.72;57.08
70343;BME280;57767;42.068;24.752;2023-11-19T04:12:35;98651.78;;;5.82;56.13
70343;BME280;57767;42.068;24.752;2023-11-19T04:13:37;98623.59;;;5.55;57.13
70343;BME280;57767;42.068;24.752;2023-11-19T04:14:39;98665.41;;;5.78;56.51
70343;BME280;57767;42.068;24.752;2023-11-19T04:15:42;98673.44;;;5.76;56.24
70343;BME280;57767;42.068;24.752;2023-11-19T04:16:45;98662.09;;;5.69;56.84
70343;BME280;57767;42.068;24.752;2023-11-19T04:17:46;98662.34;;;5.74;56.18
70343;BME280;57767;42.068;24.752;2023-11-19T04:18:48;98682.75;;;5.79;56.88
70343;BME280;57767;42.068;24.752;2023-11-19T04:19:50;98677.97;;;5.82;56.70
70343;BME280;57767;42.068;24.752;2023-11-19T04:20:51;98681.47;;;5.74;56.28
70343;BME280;57767;42.068;24.752;2023-11-19T04:21:53;98679.56;;;5.83;56.25
70343;BME280;57767;42.068;24.752;2023-11-19T04:22:55;98687.81;;;5.80;56.69
70343;BME280;57767;42.068;24.752;2023-11-19T04:23:57;98689.25;;;5.83;56.50
70343;BME280;57767;42.068;24.752;2023-11-19T04:24:59;98683.22;;;5.82;56.55
70343;BME280;57767;42.068;24.752;2023-11-19T04:26:04;98681.38;;;5.83;56.66
70343;BME280;57767;42.068;24.752;2023-11-19T04:27:08;98685.84;;;5.82;56.19
70343;BME280;57767;42.068;24.752;2023-11-19T04:28:10;98681.31;;;5.76;56.96
70343;BME280;57767;42.068;24.752;2023-11-19T04:29:13;98672.19;;;5.72;56.64
70343;BME280;57767;42.068;24.752;2023-11-19T04:30:16;98681.47;;;5.74;56.46
70343;BME280;57767;42.068;24.752;2023-11-19T04:31:17;98697.50;;;5.80;56.25
70343;BME280;57767;42.068;24.752;2023-11-19T04:32:19;98678.06;;;5.74;57.03
70343;BME280;57767;42.068;24.752;2023-11-19T04:33:22;98684.91;;;5.75;57.04
70343;BME280;57767;42.068;24.752;2023-11-19T04:34:24;98681.75;;;5.80;56.02
70343;BME280;57767;42.068;24.752;2023-11-19T04:35:25;98683.56;;;5.79;56.62
70343;BME280;57767;42.068;24.752;2023-11-19T04:36:27;98681.31;;;5.76;56.72
70343;BME280;57767;42.068;24.752;2023-11-19T04:37:31;98676.16;;;5.68;56.99
70343;BME280;57767;42.068;24.752;2023-11-19T04:38:32;98683.13;;;5.75;56.47
70343;BME280;57767;42.068;24.752;2023-11-19T04:39:34;98678.06;;;5.74;56.47
70343;BME280;57767;42.068;24.752;2023-11-19T04:40:35;98671.00;;;5.60;56.47
70343;BME280;57767;42.068;24.752;2023-11-19T04:41:54;98679.41;;;5.70;56.14
70343;BME280;57767;42.068;24.752;2023-11-19T04:42:55;98686.25;;;5.71;56.43
70343;BME280;57767;42.068;24.752;2023-11-19T04:43:57;98681.41;;;5.68;56.89
70343;BME280;57767;42.068;24.752;2023-11-19T04:44:59;98670.75;;;5.69;56.66
70343;BME280;57767;42.068;24.752;2023-11-19T04:46:03;98682.00;;;5.70;56.40
70343;BME280;57767;42.068;24.752;2023-11-19T04:47:05;98675.72;;;5.64;56.29
70343;BME280;57767;42.068;24.752;2023-11-19T04:48:07;98682.41;;;5.67;56.78
70343;BME280;57767;42.068;24.752;2023-11-19T04:49:10;98669.38;;;5.59;55.98
70343;BME280;57767;42.068;24.752;2023-11-19T04:50:19;98680.31;;;5.62;56.27
70343;BME280;57767;42.068;24.752;2023-11-19T04:51:21;98671.63;;;5.62;56.31
70343;BME280;57767;42.068;24.752;2023-11-19T04:52:23;98677.41;;;5.57;56.25
70343;BME280;57767;42.068;24.752;2023-11-19T04:53:25;98688.97;;;5.63;56.79
70343;BME280;57767;42.068;24.752;2023-11-19T04:54:26;98688.00;;;5.64;56.49
70343;BME280;57767;42.068;24.752;2023-11-19T04:55:28;98681.66;;;5.58;56.59
70343;BME280;57767;42.068;24.752;2023-11-19T04:56:30;98689.97;;;5.62;56.83
70343;BME280;57767;42.068;24.752;2023-11-19T04:57:31;98683.91;;;5.61;57.22
70343;BME280;57767;42.068;24.752;2023-11-19T04:58:34;98689.63;;;5.65;56.86
70343;BME280;57767;42.068;24.752;2023-11-19T04:59:37;98682.94;;;5.62;56.96
70343;BME280;57767;42.068;24.752;2023-11-19T05:00:39;98676.63;;;5.57;56.37
70343;BME280;57767;42.068;24.752;2023-11-19T05:01:40;98685.47;;;5.56;56.21
70343;BME280;57767;42.068;24.752;2023-11-19T05:02:42;98688.69;;;5.58;56.19
70343;BME280;57767;42.068;24.752;2023-11-19T05:03:44;98681.06;;;5.56;56.79
70343;BME280;57767;42.068;24.752;2023-11-19T05:04:47;98683.19;;;5.53;56.77
70343;BME280;57767;42.068;24.752;2023-11-19T05:05:50;98672.72;;;5.53;56.54
70343;BME280;57767;42.068;24.752;2023-11-19T05:06:52;98660.50;;;5.45;56.79
70343;BME280;57767;42.068;24.752;2023-11-19T05:07:53;98667.03;;;5.49;57.07
70343;BME280;57767;42.068;24.752;2023-11-19T05:08:58;98671.44;;;5.49;56.64
70343;BME280;57767;42.068;24.752;2023-11-19T05:10:00;98683.56;;;5.50;56.38
70343;BME280;57767;42.068;24.752;2023-11-19T05:11:01;98678.66;;;5.47;56.87
70343;BME280;57767;42.068;24.752;2023-11-19T05:12:03;98673.44;;;5.47;56.67
70343;BME280;57767;42.068;24.752;2023-11-19T05:13:05;98695.75;;;5.43;56.91
70343;BME280;57767;42.068;24.752;2023-11-19T05:14:06;98701.88;;;5.50;56.22
70343;BME280;57767;42.068;24.752;2023-11-19T05:15:08;98690.13;;;5.46;56.43
70343;BME280;57767;42.068;24.752;2023-11-19T05:16:10;98687.97;;;5.49;57.03
70343;BME280;57767;42.068;24.752;2023-11-19T05:17:12;98697.81;;;5.47;56.18
70343;BME280;57767;42.068;24.752;2023-11-19T05:18:13;98699.63;;;5.47;56.31
70343;BME280;57767;42.068;24.752;2023-11-19T05:19:15;98709.75;;;5.50;56.38
70343;BME280;57767;42.068;24.752;2023-11-19T05:20:17;98710.47;;;5.44;57.02
70343;BME280;57767;42.068;24.752;2023-11-19T05:21:18;98709.09;;;5.48;57.10
70343;BME280;57767;42.068;24.752;2023-11-19T05:22:20;98704.69;;;5.48;56.60
70343;BME280;57767;42.068;24.752;2023-11-19T05:23:22;98729.63;;;5.44;56.52
70343;BME280;57767;42.068;24.752;2023-11-19T05:24:24;98709.91;;;5.48;57.00
70343;BME280;57767;42.068;24.752;2023-11-19T05:25:26;98716.16;;;5.47;56.58
70343;BME280;57767;42.068;24.752;2023-11-19T05:26:28;98720.56;;;5.47;56.70
70343;BME280;57767;42.068;24.752;2023-11-19T05:27:29;98721.22;;;5.49;56.36
70343;BME280;57767;42.068;24.752;2023-11-19T05:28:31;98725.81;;;5.47;57.23
70343;BME280;57767;42.068;24.752;2023-11-19T05:29:33;98710.81;;;5.40;56.74
70343;BME280;57767;42.068;24.752;2023-11-19T05:30:35;98719.94;;;5.45;56.85
70343;BME280;57767;42.068;24.752;2023-11-19T05:31:36;98709.66;;;5.43;56.85
70343;BME280;57767;42.068;24.752;2023-11-19T05:32:40;98710.66;;;5.42;57.46